sensor_id;sensor_type;location;lat;lon;timestamp;P1;durP1;ratioP1;P2;durP2;ratioP2
7239;SDS011;3661;53.288;10.458;2022-08-21T00:00:55;11.02;;;10.52;;
7239;SDS011;3661;53.288;10.458;2022-08-21T00:03:27;9.93;;;9.63;;
7239;SDS011;3661;53.288;10.458;2022-08-21T00:06:00;11.17;;;10.77;;
7239;SDS011;3661;53.288;10.458;2022-08-21T00:08:32;11.88;;;11.48;;
7239;SDS011;3661;53.288;10.458;2022-08-21T00:11:06;12.75;;;12.25;;
7239;SDS011;3661;53.288;10.458;2022-08-21T00:13:38;11.00;;;10.50;;
7239;SDS011;3661;53.288;10.458;2022-08-21T00:16:10;12.82;;;12.35;;
7239;SDS011;3661;53.288;10.458;2022-08-21T00:18:42;11.82;;;11.43;;
7239;SDS011;3661;53.288;10.458;2022-08-21T00:21:15;13.27;;;12.68;;
7239;SDS011;3661;53.288;10.458;2022-08-21T00:23:47;12.52;;;11.88;;
7239;SDS011;3661;53.288;10.458;2022-08-21T00:26:21;10.95;;;10.50;;
7239;SDS011;3661;53.288;10.458;2022-08-21T00:28:53;10.55;;;9.95;;
7239;SDS011;3661;53.288;10.458;2022-08-21T00:31:25;11.75;;;11.30;;
7239;SDS011;3661;53.288;10.458;2022-08-21T00:33:57;11.20;;;10.70;;
7239;SDS011;3661;53.288;10.458;2022-08-21T00:36:29;11.27;;;10.88;;
7239;SDS011;3661;53.288;10.458;2022-08-21T00:39:02;12.40;;;11.88;;
7239;SDS011;3661;53.288;10.458;2022-08-21T00:41:38;12.98;;;12.30;;
7239;SDS011;3661;53.288;10.458;2022-08-21T00:44:13;11.10;;;10.68;;
7239;SDS011;3661;53.288;10.458;2022-08-21T00:46:45;10.75;;;10.35;;
7239;SDS011;3661;53.288;10.458;2022-08-21T00:49:18;9.63;;;9.23;;
7239;SDS011;3661;53.288;10.458;2022-08-21T00:51:51;9.98;;;9.57;;
7239;SDS011;3661;53.288;10.458;2022-08-21T00:54:25;11.32;;;10.93;;
7239;SDS011;3661;53.288;10.458;2022-08-21T00:57:02;11.00;;;10.60;;
7239;SDS011;3661;53.288;10.458;2022-08-21T00:59:38;11.02;;;10.52;;
7239;SDS011;3661;53.288;10.458;2022-08-21T01:02:15;11.63;;;11.25;;
7239;SDS011;3661;53.288;10.458;2022-08-21T01:04:48;11.00;;;10.50;;
7239;SDS011;3661;53.288;10.458;2022-08-21T01:07:20;10.63;;;10.20;;
7239;SDS011;3661;53.288;10.458;2022-08-21T01:09:52;10.57;;;10.15;;
7239;SDS011;3661;53.288;10.458;2022-08-21T01:12:26;12.13;;;11.63;;
7239;SDS011;3661;53.288;10.458;2022-08-21T01:14:58;12.10;;;11.50;;
7239;SDS011;3661;53.288;10.458;2022-08-21T01:17:32;12.35;;;11.95;;
7239;SDS011;3661;53.288;10.458;2022-08-21T01:20:06;12.27;;;11.88;;
7239;SDS011;3661;53.288;10.458;2022-08-21T01:22:44;11.88;;;11.38;;
7239;SDS011;3661;53.288;10.458;2022-08-21T01:25:17;8.53;;;8.23;;
7239;SDS011;3661;53.288;10.458;2022-08-21T01:27:50;8.93;;;8.40;;
7239;SDS011;3661;53.288;10.458;2022-08-21T01:30:23;8.77;;;8.48;;
7239;SDS011;3661;53.288;10.458;2022-08-21T01:32:57;8.57;;;8.23;;
7239;SDS011;3661;53.288;10.458;2022-08-21T01:35:30;12.38;;;11.88;;
7239;SDS011;3661;53.288;10.458;2022-08-21T01:38:04;12.70;;;12.20;;
7239;SDS011;3661;53.288;10.458;2022-08-21T01:40:36;13.35;;;12.75;;
7239;SDS011;3661;53.288;10.458;2022-08-21T01:43:08;9.38;;;8.98;;
7239;SDS011;3661;53.288;10.458;2022-08-21T01:45:42;9.48;;;9.07;;
7239;SDS011;3661;53.288;10.458;2022-08-21T01:48:14;9.17;;;8.77;;
7239;SDS011;3661;53.288;10.458;2022-08-21T01:50:46;8.93;;;8.45;;
7239;SDS011;3661;53.288;10.458;2022-08-21T01:53:20;12.95;;;12.45;;
7239;SDS011;3661;53.288;10.458;2022-08-21T01:55:52;12.57;;;12.07;;
7239;SDS011;3661;53.288;10.458;2022-08-21T01:58:24;14.23;;;13.57;;
7239;SDS011;3661;53.288;10.458;2022-08-21T02:00:56;13.90;;;13.40;;
7239;SDS011;3661;53.288;10.458;2022-08-21T02:03:29;11.27;;;10.93;;
7239;SDS011;3661;53.288;10.458;2022-08-21T02:06:01;12.10;;;11.60;;
7239;SDS011;3661;53.288;10.458;2022-08-21T02:08:35;11.63;;;11.23;;
7239;SDS011;3661;53.288;10.458;2022-08-21T02:11:07;8.90;;;8.40;;
7239;SDS011;3661;53.288;10.458;2022-08-21T02:13:39;9.20;;;8.80;;
7239;SDS011;3661;53.288;10.458;2022-08-21T02:16:12;10.70;;;10.20;;
7239;SDS011;3661;53.288;10.458;2022-08-21T02:18:45;9.48;;;8.98;;
7239;SDS011;3661;53.288;10.458;2022-08-21T02:21:18;12.50;;;11.90;;
7239;SDS011;3661;53.288;10.458;2022-08-21T02:23:51;10.57;;;10.23;;
7239;SDS011;3661;53.288;10.458;2022-08-21T02:26:24;11.23;;;10.88;;
7239;SDS011;3661;53.288;10.458;2022-08-21T02:28:57;9.98;;;9.60;;
7239;SDS011;3661;53.288;10.458;2022-08-21T02:31:29;9.23;;;8.88;;
7239;SDS011;3661;53.288;10.458;2022-08-21T02:34:01;8.60;;;8.20;;
7239;SDS011;3661;53.288;10.458;2022-08-21T02:36:34;11.02;;;10.23;;
7239;SDS011;3661;53.288;10.458;2022-08-21T02:39:08;9.23;;;8.82;;
7239;SDS011;3661;53.288;10.458;2022-08-21T02:41:40;8.43;;;8.02;;
7239;SDS011;3661;53.288;10.458;2022-08-21T02:44:12;8.48;;;8.15;;
7239;SDS011;3661;53.288;10.458;2022-08-21T02:46:44;9.75;;;9.15;;
7239;SDS011;3661;53.288;10.458;2022-08-21T02:49:16;8.82;;;8.52;;
7239;SDS011;3661;53.288;10.458;2022-08-21T02:51:49;10.95;;;10.25;;
7239;SDS011;3661;53.288;10.458;2022-08-21T02:54:22;13.13;;;12.63;;
7239;SDS011;3661;53.288;10.458;2022-08-21T02:56:55;11.18;;;10.85;;
7239;SDS011;3661;53.288;10.458;2022-08-21T02:59:27;10.77;;;10.23;;
7239;SDS011;3661;53.288;10.458;2022-08-21T03:01:59;13.07;;;12.47;;
7239;SDS011;3661;53.288;10.458;2022-08-21T03:04:31;13.30;;;12.80;;
7239;SDS011;3661;53.288;10.458;2022-08-21T03:07:03;13.70;;;13.20;;
7239;SDS011;3661;53.288;10.458;2022-08-21T03:09:37;15.35;;;14.82;;
7239;SDS011;3661;53.288;10.458;2022-08-21T03:12:09;15.27;;;14.70;;
7239;SDS011;3661;53.288;10.458;2022-08-21T03:14:41;12.00;;;11.50;;
7239;SDS011;3661;53.288;10.458;2022-08-21T03:17:14;13.55;;;13.05;;
7239;SDS011;3661;53.288;10.458;2022-08-21T03:19:46;13.90;;;13.30;;
7239;SDS011;3661;53.288;10.458;2022-08-21T03:22:18;9.68;;;9.07;;
7239;SDS011;3661;53.288;10.458;2022-08-21T03:24:52;11.02;;;10.32;;
7239;SDS011;3661;53.288;10.458;2022-08-21T03:27:24;14.50;;;13.90;;
7239;SDS011;3661;53.288;10.458;2022-08-21T03:29:57;14.40;;;13.80;;
7239;SDS011;3661;53.288;10.458;2022-08-21T03:32:30;15.18;;;14.55;;
7239;SDS011;3661;53.288;10.458;2022-08-21T03:35:03;14.38;;;13.77;;
7239;SDS011;3661;53.288;10.458;2022-08-21T03:37:36;14.00;;;13.35;;
7239;SDS011;3661;53.288;10.458;2022-08-21T03:40:10;13.10;;;12.50;;
7239;SDS011;3661;53.288;10.458;2022-08-21T03:42:44;9.68;;;9.10;;
7239;SDS011;3661;53.288;10.458;2022-08-21T03:45:20;9.75;;;9.25;;
7239;SDS011;3661;53.288;10.458;2022-08-21T03:47:53;10.35;;;9.93;;
7239;SDS011;3661;53.288;10.458;2022-08-21T03:50:28;10.88;;;10.38;;
7239;SDS011;3661;53.288;10.458;2022-08-21T03:53:01;10.07;;;9.43;;
7239;SDS011;3661;53.288;10.458;2022-08-21T03:55:35;11.20;;;10.70;;
7239;SDS011;3661;53.288;10.458;2022-08-21T03:58:07;8.02;;;7.53;;
7239;SDS011;3661;53.288;10.458;2022-08-21T04:00:39;8.88;;;8.27;;
7239;SDS011;3661;53.288;10.458;2022-08-21T04:03:12;8.37;;;7.93;;
7239;SDS011;3661;53.288;10.458;2022-08-21T04:05:44;8.40;;;8.10;;
7239;SDS011;3661;53.288;10.458;2022-08-21T04:08:17;8.35;;;7.85;;
7239;SDS011;3661;53.288;10.458;2022-08-21T04:10:52;8.60;;;8.18;;
7239;SDS011;3661;53.288;10.458;2022-08-21T04:13:28;8.63;;;8.18;;
7239;SDS011;3661;53.288;10.458;2022-08-21T04:16:02;9.55;;;8.98;;
7239;SDS011;3661;53.288;10.458;2022-08-21T04:18:34;11.52;;;11.15;;
7239;SDS011;3661;53.288;10.458;2022-08-21T04:21:08;12.75;;;12.25;;
7239;SDS011;3661;53.288;10.458;2022-08-21T04:23:42;11.10;;;10.60;;
7239;SDS011;3661;53.288;10.458;2022-08-21T04:26:16;10.88;;;10.45;;
7239;SDS011;3661;53.288;10.458;2022-08-21T04:28:48;11.38;;;10.85;;
7239;SDS011;3661;53.288;10.458;2022-08-21T04:31:20;10.60;;;10.10;;
7239;SDS011;3661;53.288;10.458;2022-08-21T04:33:52;11.48;;;10.98;;
7239;SDS011;3661;53.288;10.458;2022-08-21T04:36:24;11.30;;;10.73;;
7239;SDS011;3661;53.288;10.458;2022-08-21T04:38:57;8.55;;;8.25;;
7239;SDS011;3661;53.288;10.458;2022-08-21T04:41:30;9.55;;;9.10;;
7239;SDS011;3661;53.288;10.458;2022-08-21T04:44:03;8.57;;;8.13;;
7239;SDS011;3661;53.288;10.458;2022-08-21T04:46:36;7.82;;;7.35;;
7239;SDS011;3661;53.288;10.458;2022-08-21T04:49:08;8.05;;;7.75;;
7239;SDS011;3661;53.288;10.458;2022-08-21T04:51:40;11.18;;;10.43;;
7239;SDS011;3661;53.288;10.458;2022-08-21T04:54:14;10.27;;;9.88;;
7239;SDS011;3661;53.288;10.458;2022-08-21T04:56:52;11.20;;;10.55;;
7239;SDS011;3661;53.288;10.458;2022-08-21T04:59:27;11.45;;;10.82;;
7239;SDS011;3661;53.288;10.458;2022-08-21T05:02:03;10.60;;;10.10;;
7239;SDS011;3661;53.288;10.458;2022-08-21T05:04:37;11.10;;;10.57;;
7239;SDS011;3661;53.288;10.458;2022-08-21T05:07:14;10.15;;;9.65;;
7239;SDS011;3661;53.288;10.458;2022-08-21T05:09:50;10.75;;;10.20;;
7239;SDS011;3661;53.288;10.458;2022-08-21T05:12:24;10.25;;;9.75;;
7239;SDS011;3661;53.288;10.458;2022-08-21T05:14:57;13.45;;;12.95;;
7239;SDS011;3661;53.288;10.458;2022-08-21T05:17:29;11.73;;;11.23;;
7239;SDS011;3661;53.288;10.458;2022-08-21T05:20:02;11.80;;;11.20;;
7239;SDS011;3661;53.288;10.458;2022-08-21T05:22:34;15.40;;;14.80;;
7239;SDS011;3661;53.288;10.458;2022-08-21T05:25:06;11.60;;;11.10;;
7239;SDS011;3661;53.288;10.458;2022-08-21T05:27:41;12.40;;;11.85;;
7239;SDS011;3661;53.288;10.458;2022-08-21T05:30:14;16.27;;;15.57;;
7239;SDS011;3661;53.288;10.458;2022-08-21T05:32:46;14.30;;;13.70;;
7239;SDS011;3661;53.288;10.458;2022-08-21T05:35:18;13.43;;;12.87;;
7239;SDS011;3661;53.288;10.458;2022-08-21T05:37:51;12.70;;;12.10;;
7239;SDS011;3661;53.288;10.458;2022-08-21T05:40:23;12.77;;;12.18;;
7239;SDS011;3661;53.288;10.458;2022-08-21T05:42:57;16.40;;;15.80;;
7239;SDS011;3661;53.288;10.458;2022-08-21T05:45:31;13.13;;;12.73;;
7239;SDS011;3661;53.288;10.458;2022-08-21T05:48:07;12.73;;;12.13;;
7239;SDS011;3661;53.288;10.458;2022-08-21T05:50:40;16.20;;;15.43;;
7239;SDS011;3661;53.288;10.458;2022-08-21T05:53:13;15.95;;;15.30;;
7239;SDS011;3661;53.288;10.458;2022-08-21T05:55:47;12.23;;;11.75;;
7239;SDS011;3661;53.288;10.458;2022-08-21T05:58:21;11.77;;;11.18;;
7239;SDS011;3661;53.288;10.458;2022-08-21T06:00:53;17.17;;;16.48;;
7239;SDS011;3661;53.288;10.458;2022-08-21T06:03:26;16.15;;;15.45;;
7239;SDS011;3661;53.288;10.458;2022-08-21T06:06:00;16.00;;;15.30;;
7239;SDS011;3661;53.288;10.458;2022-08-21T06:08:36;15.65;;;15.05;;
7239;SDS011;3661;53.288;10.458;2022-08-21T06:11:09;12.25;;;11.75;;
7239;SDS011;3661;53.288;10.458;2022-08-21T06:13:42;16.80;;;16.23;;
7239;SDS011;3661;53.288;10.458;2022-08-21T06:16:15;13.98;;;13.38;;
7239;SDS011;3661;53.288;10.458;2022-08-21T06:18:49;12.40;;;11.80;;
7239;SDS011;3661;53.288;10.458;2022-08-21T06:21:22;12.23;;;11.57;;
7239;SDS011;3661;53.288;10.458;2022-08-21T06:23:55;15.65;;;14.93;;
7239;SDS011;3661;53.288;10.458;2022-08-21T06:26:27;14.73;;;14.07;;
7239;SDS011;3661;53.288;10.458;2022-08-21T06:29:01;14.90;;;14.15;;
7239;SDS011;3661;53.288;10.458;2022-08-21T06:31:33;14.43;;;13.80;;
7239;SDS011;3661;53.288;10.458;2022-08-21T06:34:06;12.03;;;11.53;;
7239;SDS011;3661;53.288;10.458;2022-08-21T06:36:38;14.80;;;14.13;;
7239;SDS011;3661;53.288;10.458;2022-08-21T06:39:10;15.63;;;14.82;;
7239;SDS011;3661;53.288;10.458;2022-08-21T06:41:43;14.48;;;13.73;;
7239;SDS011;3661;53.288;10.458;2022-08-21T06:44:17;10.07;;;9.75;;
7239;SDS011;3661;53.288;10.458;2022-08-21T06:46:50;16.02;;;15.52;;
7239;SDS011;3661;53.288;10.458;2022-08-21T06:49:22;12.20;;;11.80;;
7239;SDS011;3661;53.288;10.458;2022-08-21T06:51:54;13.15;;;12.75;;
7239;SDS011;3661;53.288;10.458;2022-08-21T06:54:27;11.82;;;11.25;;
7239;SDS011;3661;53.288;10.458;2022-08-21T06:57:00;10.43;;;10.02;;
7239;SDS011;3661;53.288;10.458;2022-08-21T06:59:34;8.67;;;8.27;;
7239;SDS011;3661;53.288;10.458;2022-08-21T07:02:06;10.52;;;10.07;;
7239;SDS011;3661;53.288;10.458;2022-08-21T07:04:39;8.40;;;7.97;;
7239;SDS011;3661;53.288;10.458;2022-08-21T07:07:11;8.60;;;8.20;;
7239;SDS011;3661;53.288;10.458;2022-08-21T07:09:44;10.25;;;9.85;;
7239;SDS011;3661;53.288;10.458;2022-08-21T07:12:16;9.65;;;9.15;;
7239;SDS011;3661;53.288;10.458;2022-08-21T07:14:50;10.57;;;10.18;;
7239;SDS011;3661;53.288;10.458;2022-08-21T07:17:23;9.02;;;8.57;;
7239;SDS011;3661;53.288;10.458;2022-08-21T07:19:55;10.87;;;10.30;;
7239;SDS011;3661;53.288;10.458;2022-08-21T07:22:28;8.65;;;8.25;;
7239;SDS011;3661;53.288;10.458;2022-08-21T07:25:00;9.90;;;9.40;;
7239;SDS011;3661;53.288;10.458;2022-08-21T07:27:33;11.17;;;10.77;;
7239;SDS011;3661;53.288;10.458;2022-08-21T07:30:09;8.40;;;7.97;;
7239;SDS011;3661;53.288;10.458;2022-08-21T07:32:41;12.23;;;11.48;;
7239;SDS011;3661;53.288;10.458;2022-08-21T07:35:14;9.68;;;9.25;;
7239;SDS011;3661;53.288;10.458;2022-08-21T07:37:46;12.75;;;12.35;;
7239;SDS011;3661;53.288;10.458;2022-08-21T07:40:19;12.73;;;12.20;;
7239;SDS011;3661;53.288;10.458;2022-08-21T07:42:51;9.55;;;9.25;;
7239;SDS011;3661;53.288;10.458;2022-08-21T07:45:26;11.10;;;10.75;;
7239;SDS011;3661;53.288;10.458;2022-08-21T07:47:59;10.75;;;10.38;;
7239;SDS011;3661;53.288;10.458;2022-08-21T07:50:32;15.45;;;14.80;;
7239;SDS011;3661;53.288;10.458;2022-08-21T07:53:05;12.98;;;12.48;;
7239;SDS011;3661;53.288;10.458;2022-08-21T07:55:38;11.07;;;10.67;;
7239;SDS011;3661;53.288;10.458;2022-08-21T07:58:10;12.32;;;11.85;;
7239;SDS011;3661;53.288;10.458;2022-08-21T08:00:44;13.63;;;12.93;;
7239;SDS011;3661;53.288;10.458;2022-08-21T08:03:16;14.25;;;13.75;;
7239;SDS011;3661;53.288;10.458;2022-08-21T08:05:48;14.05;;;13.55;;
7239;SDS011;3661;53.288;10.458;2022-08-21T08:08:21;14.65;;;14.15;;
7239;SDS011;3661;53.288;10.458;2022-08-21T08:10:53;12.00;;;11.50;;
7239;SDS011;3661;53.288;10.458;2022-08-21T08:13:29;14.40;;;13.80;;
7239;SDS011;3661;53.288;10.458;2022-08-21T08:16:26;17.67;;;16.98;;
7239;SDS011;3661;53.288;10.458;2022-08-21T08:18:59;15.68;;;15.07;;
7239;SDS011;3661;53.288;10.458;2022-08-21T08:21:31;12.35;;;11.85;;
7239;SDS011;3661;53.288;10.458;2022-08-21T08:24:04;16.65;;;15.95;;
7239;SDS011;3661;53.288;10.458;2022-08-21T08:26:36;12.25;;;11.75;;
7239;SDS011;3661;53.288;10.458;2022-08-21T08:29:08;11.60;;;11.20;;
7239;SDS011;3661;53.288;10.458;2022-08-21T08:31:42;13.38;;;12.88;;
7239;SDS011;3661;53.288;10.458;2022-08-21T08:34:17;14.30;;;13.77;;
7239;SDS011;3661;53.288;10.458;2022-08-21T08:36:52;13.43;;;12.90;;
7239;SDS011;3661;53.288;10.458;2022-08-21T08:39:24;14.65;;;14.05;;
7239;SDS011;3661;53.288;10.458;2022-08-21T08:42:01;17.10;;;16.60;;
7239;SDS011;3661;53.288;10.458;2022-08-21T08:44:37;14.17;;;13.77;;
7239;SDS011;3661;53.288;10.458;2022-08-21T08:47:12;16.90;;;16.33;;
7239;SDS011;3661;53.288;10.458;2022-08-21T08:49:49;14.73;;;14.23;;
7239;SDS011;3661;53.288;10.458;2022-08-21T08:52:27;16.58;;;15.98;;
7239;SDS011;3661;53.288;10.458;2022-08-21T08:55:04;15.45;;;14.95;;
7239;SDS011;3661;53.288;10.458;2022-08-21T08:57:42;12.30;;;11.80;;
7239;SDS011;3661;53.288;10.458;2022-08-21T09:00:19;20.52;;;19.58;;
7239;SDS011;3661;53.288;10.458;2022-08-21T09:02:55;15.98;;;15.30;;
7239;SDS011;3661;53.288;10.458;2022-08-21T09:05:30;16.20;;;15.53;;
7239;SDS011;3661;53.288;10.458;2022-08-21T09:08:16;14.97;;;14.27;;
7239;SDS011;3661;53.288;10.458;2022-08-21T09:11:07;14.43;;;13.93;;
7239;SDS011;3661;53.288;10.458;2022-08-21T09:13:47;13.60;;;12.95;;
7239;SDS011;3661;53.288;10.458;2022-08-21T09:16:28;13.82;;;13.35;;
7239;SDS011;3661;53.288;10.458;2022-08-21T09:19:10;12.18;;;11.77;;
7239;SDS011;3661;53.288;10.458;2022-08-21T09:21:58;13.40;;;13.00;;
7239;SDS011;3661;53.288;10.458;2022-08-21T09:24:38;16.45;;;15.93;;
7239;SDS011;3661;53.288;10.458;2022-08-21T09:27:17;16.38;;;15.80;;
7239;SDS011;3661;53.288;10.458;2022-08-21T09:29:52;14.38;;;13.88;;
7239;SDS011;3661;53.288;10.458;2022-08-21T09:32:28;14.70;;;14.20;;
7239;SDS011;3661;53.288;10.458;2022-08-21T09:35:05;14.93;;;14.43;;
7239;SDS011;3661;53.288;10.458;2022-08-21T09:37:48;15.32;;;14.93;;
7239;SDS011;3661;53.288;10.458;2022-08-21T09:40:30;15.38;;;14.85;;
7239;SDS011;3661;53.288;10.458;2022-08-21T09:43:06;15.70;;;15.10;;
7239;SDS011;3661;53.288;10.458;2022-08-21T09:45:48;10.87;;;10.47;;
7239;SDS011;3661;53.288;10.458;2022-08-21T09:48:39;12.13;;;11.73;;
7239;SDS011;3661;53.288;10.458;2022-08-21T09:51:18;15.87;;;15.37;;
7239;SDS011;3661;53.288;10.458;2022-08-21T09:53:53;11.43;;;11.00;;
7239;SDS011;3661;53.288;10.458;2022-08-21T09:56:29;10.23;;;9.75;;
7239;SDS011;3661;53.288;10.458;2022-08-21T09:59:25;10.90;;;10.50;;
7239;SDS011;3661;53.288;10.458;2022-08-21T10:02:22;10.18;;;9.63;;
7239;SDS011;3661;53.288;10.458;2022-08-21T10:04:57;10.00;;;9.60;;
7239;SDS011;3661;53.288;10.458;2022-08-21T10:07:32;10.80;;;10.40;;
7239;SDS011;3661;53.288;10.458;2022-08-21T10:10:08;8.90;;;8.50;;
7239;SDS011;3661;53.288;10.458;2022-08-21T10:12:48;8.60;;;8.23;;
7239;SDS011;3661;53.288;10.458;2022-08-21T10:15:31;8.48;;;7.97;;
7239;SDS011;3661;53.288;10.458;2022-08-21T10:18:12;8.52;;;7.93;;
7239;SDS011;3661;53.288;10.458;2022-08-21T10:20:52;8.10;;;7.60;;
7239;SDS011;3661;53.288;10.458;2022-08-21T10:23:38;7.88;;;7.50;;
7239;SDS011;3661;53.288;10.458;2022-08-21T10:26:20;7.70;;;7.35;;
7239;SDS011;3661;53.288;10.458;2022-08-21T10:29:09;13.13;;;12.52;;
7239;SDS011;3661;53.288;10.458;2022-08-21T10:31:55;13.70;;;13.10;;
7239;SDS011;3661;53.288;10.458;2022-08-21T10:34:35;14.15;;;13.75;;
7239;SDS011;3661;53.288;10.458;2022-08-21T10:37:18;15.43;;;14.93;;
7239;SDS011;3661;53.288;10.458;2022-08-21T10:40:09;15.43;;;14.90;;
7239;SDS011;3661;53.288;10.458;2022-08-21T10:42:49;16.53;;;15.83;;
7239;SDS011;3661;53.288;10.458;2022-08-21T10:45:40;16.40;;;15.73;;
7239;SDS011;3661;53.288;10.458;2022-08-21T10:48:22;13.88;;;13.10;;
7239;SDS011;3661;53.288;10.458;2022-08-21T10:51:04;14.88;;;14.27;;
7239;SDS011;3661;53.288;10.458;2022-08-21T10:53:51;14.30;;;13.90;;
7239;SDS011;3661;53.288;10.458;2022-08-21T10:56:33;13.80;;;13.30;;
7239;SDS011;3661;53.288;10.458;2022-08-21T10:59:16;15.57;;;14.87;;
7239;SDS011;3661;53.288;10.458;2022-08-21T11:01:58;15.43;;;14.82;;
7239;SDS011;3661;53.288;10.458;2022-08-21T11:04:34;15.68;;;15.07;;
7239;SDS011;3661;53.288;10.458;2022-08-21T11:07:12;15.48;;;14.57;;
7239;SDS011;3661;53.288;10.458;2022-08-21T11:09:50;13.95;;;13.45;;
7239;SDS011;3661;53.288;10.458;2022-08-21T11:12:39;12.60;;;12.20;;
7239;SDS011;3661;53.288;10.458;2022-08-21T11:15:18;12.93;;;12.52;;
7239;SDS011;3661;53.288;10.458;2022-08-21T11:18:00;10.48;;;9.90;;
7239;SDS011;3661;53.288;10.458;2022-08-21T11:20:42;10.35;;;9.75;;
7239;SDS011;3661;53.288;10.458;2022-08-21T11:23:21;8.43;;;8.10;;
7239;SDS011;3661;53.288;10.458;2022-08-21T11:25:58;8.13;;;7.63;;
7239;SDS011;3661;53.288;10.458;2022-08-21T11:28:35;7.65;;;7.05;;
7239;SDS011;3661;53.288;10.458;2022-08-21T11:31:18;8.38;;;7.97;;
7239;SDS011;3661;53.288;10.458;2022-08-21T11:34:03;7.55;;;7.25;;
7239;SDS011;3661;53.288;10.458;2022-08-21T11:36:46;6.57;;;6.07;;
7239;SDS011;3661;53.288;10.458;2022-08-21T11:39:30;7.30;;;6.90;;
7239;SDS011;3661;53.288;10.458;2022-08-21T11:42:13;6.70;;;6.30;;
7239;SDS011;3661;53.288;10.458;2022-08-21T11:44:54;6.97;;;6.38;;
7239;SDS011;3661;53.288;10.458;2022-08-21T11:47:33;6.53;;;6.25;;
7239;SDS011;3661;53.288;10.458;2022-08-21T11:50:18;5.45;;;5.25;;
7239;SDS011;3661;53.288;10.458;2022-08-21T11:52:56;5.45;;;5.15;;
7239;SDS011;3661;53.288;10.458;2022-08-21T11:55:37;4.57;;;4.38;;
7239;SDS011;3661;53.288;10.458;2022-08-21T11:58:14;4.50;;;4.10;;
7239;SDS011;3661;53.288;10.458;2022-08-21T12:00:54;4.68;;;4.38;;
7239;SDS011;3661;53.288;10.458;2022-08-21T12:03:28;4.70;;;4.40;;
7239;SDS011;3661;53.288;10.458;2022-08-21T12:06:04;4.45;;;4.25;;
7239;SDS011;3661;53.288;10.458;2022-08-21T12:08:39;5.43;;;5.07;;
7239;SDS011;3661;53.288;10.458;2022-08-21T12:11:22;4.45;;;4.25;;
7239;SDS011;3661;53.288;10.458;2022-08-21T12:13:57;5.50;;;5.20;;
7239;SDS011;3661;53.288;10.458;2022-08-21T12:16:33;4.22;;;3.95;;
7239;SDS011;3661;53.288;10.458;2022-08-21T12:19:08;4.70;;;4.40;;
7239;SDS011;3661;53.288;10.458;2022-08-21T12:21:48;3.83;;;3.63;;
7239;SDS011;3661;53.288;10.458;2022-08-21T12:24:31;4.35;;;4.15;;
7239;SDS011;3661;53.288;10.458;2022-08-21T12:27:14;4.13;;;3.92;;
7239;SDS011;3661;53.288;10.458;2022-08-21T12:29:56;5.07;;;4.82;;
7239;SDS011;3661;53.288;10.458;2022-08-21T12:32:43;4.78;;;4.57;;
7239;SDS011;3661;53.288;10.458;2022-08-21T12:35:25;4.80;;;4.50;;
7239;SDS011;3661;53.288;10.458;2022-08-21T12:38:04;4.30;;;3.90;;
7239;SDS011;3661;53.288;10.458;2022-08-21T12:40:42;4.07;;;3.90;;
7239;SDS011;3661;53.288;10.458;2022-08-21T12:43:19;4.38;;;4.10;;
7239;SDS011;3661;53.288;10.458;2022-08-21T12:45:53;4.63;;;4.32;;
7239;SDS011;3661;53.288;10.458;2022-08-21T12:48:28;4.60;;;4.30;;
7239;SDS011;3661;53.288;10.458;2022-08-21T12:51:06;5.32;;;4.97;;
7239;SDS011;3661;53.288;10.458;2022-08-21T12:53:44;4.80;;;4.53;;
7239;SDS011;3661;53.288;10.458;2022-08-21T12:56:19;4.15;;;3.97;;
7239;SDS011;3661;53.288;10.458;2022-08-21T12:58:53;4.43;;;4.22;;
7239;SDS011;3661;53.288;10.458;2022-08-21T13:01:28;5.27;;;4.97;;
7239;SDS011;3661;53.288;10.458;2022-08-21T13:04:06;4.22;;;4.03;;
7239;SDS011;3661;53.288;10.458;2022-08-21T13:06:42;5.05;;;4.82;;
7239;SDS011;3661;53.288;10.458;2022-08-21T13:09:16;4.90;;;4.60;;
7239;SDS011;3661;53.288;10.458;2022-08-21T13:11:51;4.43;;;4.22;;
7239;SDS011;3661;53.288;10.458;2022-08-21T13:14:25;6.20;;;5.90;;
7239;SDS011;3661;53.288;10.458;2022-08-21T13:17:03;6.10;;;5.70;;
7239;SDS011;3661;53.288;10.458;2022-08-21T13:19:38;4.28;;;4.03;;
7239;SDS011;3661;53.288;10.458;2022-08-21T13:22:13;5.30;;;5.00;;
7239;SDS011;3661;53.288;10.458;2022-08-21T13:24:47;5.22;;;4.90;;
7239;SDS011;3661;53.288;10.458;2022-08-21T13:27:24;5.73;;;5.33;;
7239;SDS011;3661;53.288;10.458;2022-08-21T13:30:03;5.57;;;5.28;;
7239;SDS011;3661;53.288;10.458;2022-08-21T13:32:40;5.15;;;4.75;;
7239;SDS011;3661;53.288;10.458;2022-08-21T13:35:17;5.55;;;5.28;;
7239;SDS011;3661;53.288;10.458;2022-08-21T13:37:51;5.03;;;4.83;;
7239;SDS011;3661;53.288;10.458;2022-08-21T13:40:26;5.85;;;5.35;;
7239;SDS011;3661;53.288;10.458;2022-08-21T13:43:00;6.03;;;5.83;;
7239;SDS011;3661;53.288;10.458;2022-08-21T13:45:32;4.88;;;4.68;;
7239;SDS011;3661;53.288;10.458;2022-08-21T13:48:05;5.35;;;5.15;;
7239;SDS011;3661;53.288;10.458;2022-08-21T13:50:38;4.93;;;4.63;;
7239;SDS011;3661;53.288;10.458;2022-08-21T13:53:20;4.88;;;4.57;;
7239;SDS011;3661;53.288;10.458;2022-08-21T13:55:54;4.85;;;4.50;;
7239;SDS011;3661;53.288;10.458;2022-08-21T13:58:27;4.32;;;4.13;;
7239;SDS011;3661;53.288;10.458;2022-08-21T14:01:00;5.65;;;5.35;;
7239;SDS011;3661;53.288;10.458;2022-08-21T14:03:34;5.50;;;5.10;;
7239;SDS011;3661;53.288;10.458;2022-08-21T14:06:12;5.10;;;4.80;;
7239;SDS011;3661;53.288;10.458;2022-08-21T14:08:48;4.77;;;4.37;;
7239;SDS011;3661;53.288;10.458;2022-08-21T14:11:22;5.10;;;4.90;;
7239;SDS011;3661;53.288;10.458;2022-08-21T14:13:57;6.30;;;5.90;;
7239;SDS011;3661;53.288;10.458;2022-08-21T14:16:41;5.25;;;4.93;;
7239;SDS011;3661;53.288;10.458;2022-08-21T14:19:18;4.72;;;4.53;;
7239;SDS011;3661;53.288;10.458;2022-08-21T14:21:53;5.45;;;5.15;;
7239;SDS011;3661;53.288;10.458;2022-08-21T14:24:26;5.20;;;4.80;;
7239;SDS011;3661;53.288;10.458;2022-08-21T14:27:01;4.50;;;4.30;;
7239;SDS011;3661;53.288;10.458;2022-08-21T14:29:36;5.22;;;5.03;;
7239;SDS011;3661;53.288;10.458;2022-08-21T14:32:11;5.05;;;4.85;;
7239;SDS011;3661;53.288;10.458;2022-08-21T14:34:45;5.25;;;4.95;;
7239;SDS011;3661;53.288;10.458;2022-08-21T14:37:19;5.57;;;5.28;;
7239;SDS011;3661;53.288;10.458;2022-08-21T14:39:54;5.83;;;5.50;;
7239;SDS011;3661;53.288;10.458;2022-08-21T14:42:26;6.07;;;5.78;;
7239;SDS011;3661;53.288;10.458;2022-08-21T14:45:01;6.30;;;6.10;;
7239;SDS011;3661;53.288;10.458;2022-08-21T14:47:46;6.20;;;5.90;;
7239;SDS011;3661;53.288;10.458;2022-08-21T14:50:18;7.03;;;6.57;;
7239;SDS011;3661;53.288;10.458;2022-08-21T14:52:52;6.28;;;5.97;;
7239;SDS011;3661;53.288;10.458;2022-08-21T14:55:24;5.65;;;5.45;;
7239;SDS011;3661;53.288;10.458;2022-08-21T14:57:57;6.25;;;5.85;;
7239;SDS011;3661;53.288;10.458;2022-08-21T15:00:32;5.55;;;5.35;;
7239;SDS011;3661;53.288;10.458;2022-08-21T15:03:06;5.65;;;5.35;;
7239;SDS011;3661;53.288;10.458;2022-08-21T15:05:38;7.22;;;6.88;;
7239;SDS011;3661;53.288;10.458;2022-08-21T15:08:12;6.18;;;5.78;;
7239;SDS011;3661;53.288;10.458;2022-08-21T15:10:44;6.18;;;5.88;;
7239;SDS011;3661;53.288;10.458;2022-08-21T15:13:17;6.20;;;6.00;;
7239;SDS011;3661;53.288;10.458;2022-08-21T15:15:50;5.60;;;5.35;;
7239;SDS011;3661;53.288;10.458;2022-08-21T15:18:24;8.48;;;8.00;;
7239;SDS011;3661;53.288;10.458;2022-08-21T15:20:57;6.03;;;5.82;;
7239;SDS011;3661;53.288;10.458;2022-08-21T15:23:31;6.70;;;6.35;;
7239;SDS011;3661;53.288;10.458;2022-08-21T15:26:03;6.60;;;6.25;;
7239;SDS011;3661;53.288;10.458;2022-08-21T15:28:36;7.97;;;7.68;;
7239;SDS011;3661;53.288;10.458;2022-08-21T15:31:09;6.72;;;6.30;;
7239;SDS011;3661;53.288;10.458;2022-08-21T15:33:41;6.18;;;5.88;;